Portada
METAR-TAF:

METAR-TAF

Aeroports :

Nancy, França

latitud: 48-41N, longitud: 006-13E, altitud: 225 m

Observació

L'informe es va fer fa 14 minuts, a les 14:30 UTC
Vent 14 kt del Oest amb ràfegues de 25 kt, variant entre Sud-Oest i Nord-Oest
Temperatura 6°C
Humitat 56%
Pressió 1006 hPa
Visibilitat 10 km o més
Núvols disperses a una alçada de 3200 ft
Núvols disperses a una alçada de 3900 ft

METAR: LFSN 261430Z AUTO 27014G25KT 230V310 9999 SCT032 SCT039 06/M02 Q1006

Hora: 15:44 (14:44 UTC)


TAF: manca

Observacions i pronòstics meteorològics de més de 4000 aeroports (METAR i TAF).

Les estacions disponibles són els punts grocs i vermells al mapa.

Posi el ratolí al punt desitjat per veure el nom de l'estació.

Feu clic per veure les observacions i els pronòstics meteorològics.

Per canviar el mapa: feu clic els botons verds amb una creu de color negre per apropar; al botó verd amb un guió per allunyar la imatge; o en les fletxes verdes per a mapes adjacents.


METAR-TAF: